sensor_id;sensor_type;location;lat;lon;timestamp;P1;durP1;ratioP1;P2;durP2;ratioP2
8139;SDS011;4111;50.972;7.072;2023-12-07T00:01:22;13.70;;;11.20;;
8139;SDS011;4111;50.972;7.072;2023-12-07T00:03:49;13.60;;;10.47;;
8139;SDS011;4111;50.972;7.072;2023-12-07T00:06:16;13.57;;;10.93;;
8139;SDS011;4111;50.972;7.072;2023-12-07T00:08:43;14.87;;;12.07;;
8139;SDS011;4111;50.972;7.072;2023-12-07T00:11:09;12.37;;;11.03;;
8139;SDS011;4111;50.972;7.072;2023-12-07T00:13:36;12.63;;;11.13;;
8139;SDS011;4111;50.972;7.072;2023-12-07T00:16:03;17.70;;;12.00;;
8139;SDS011;4111;50.972;7.072;2023-12-07T00:18:29;16.43;;;10.90;;
8139;SDS011;4111;50.972;7.072;2023-12-07T00:20:56;15.40;;;12.00;;
8139;SDS011;4111;50.972;7.072;2023-12-07T00:23:22;19.80;;;12.57;;
8139;SDS011;4111;50.972;7.072;2023-12-07T00:25:49;16.83;;;12.33;;
8139;SDS011;4111;50.972;7.072;2023-12-07T00:28:17;15.43;;;11.93;;
8139;SDS011;4111;50.972;7.072;2023-12-07T00:30:44;14.57;;;11.57;;
8139;SDS011;4111;50.972;7.072;2023-12-07T00:33:10;15.37;;;9.70;;
8139;SDS011;4111;50.972;7.072;2023-12-07T00:35:36;14.80;;;11.00;;
8139;SDS011;4111;50.972;7.072;2023-12-07T00:38:03;12.90;;;10.27;;
8139;SDS011;4111;50.972;7.072;2023-12-07T00:40:29;11.40;;;10.20;;
8139;SDS011;4111;50.972;7.072;2023-12-07T00:42:56;16.53;;;10.67;;
8139;SDS011;4111;50.972;7.072;2023-12-07T00:45:23;15.00;;;10.90;;
8139;SDS011;4111;50.972;7.072;2023-12-07T00:47:50;14.90;;;10.97;;
8139;SDS011;4111;50.972;7.072;2023-12-07T00:50:17;14.57;;;10.33;;
8139;SDS011;4111;50.972;7.072;2023-12-07T00:52:43;13.67;;;11.10;;
8139;SDS011;4111;50.972;7.072;2023-12-07T00:55:10;14.40;;;11.47;;
8139;SDS011;4111;50.972;7.072;2023-12-07T00:57:38;13.77;;;10.37;;
8139;SDS011;4111;50.972;7.072;2023-12-07T01:00:04;13.47;;;10.73;;
8139;SDS011;4111;50.972;7.072;2023-12-07T01:02:32;14.40;;;10.13;;
8139;SDS011;4111;50.972;7.072;2023-12-07T01:04:58;15.83;;;11.23;;
8139;SDS011;4111;50.972;7.072;2023-12-07T01:07:25;13.37;;;11.30;;
8139;SDS011;4111;50.972;7.072;2023-12-07T01:09:51;14.73;;;10.67;;
8139;SDS011;4111;50.972;7.072;2023-12-07T01:12:18;14.13;;;11.20;;
8139;SDS011;4111;50.972;7.072;2023-12-07T01:14:44;14.80;;;11.43;;
8139;SDS011;4111;50.972;7.072;2023-12-07T01:17:11;13.37;;;10.47;;
8139;SDS011;4111;50.972;7.072;2023-12-07T01:19:37;12.00;;;10.47;;
8139;SDS011;4111;50.972;7.072;2023-12-07T01:22:04;13.17;;;10.97;;
8139;SDS011;4111;50.972;7.072;2023-12-07T01:24:30;19.50;;;11.97;;
8139;SDS011;4111;50.972;7.072;2023-12-07T01:26:57;14.00;;;10.83;;
8139;SDS011;4111;50.972;7.072;2023-12-07T01:29:23;16.10;;;11.10;;
8139;SDS011;4111;50.972;7.072;2023-12-07T01:31:50;12.53;;;10.90;;
8139;SDS011;4111;50.972;7.072;2023-12-07T01:34:17;18.40;;;11.90;;
8139;SDS011;4111;50.972;7.072;2023-12-07T01:36:44;15.63;;;11.43;;
8139;SDS011;4111;50.972;7.072;2023-12-07T01:39:11;17.13;;;11.70;;
8139;SDS011;4111;50.972;7.072;2023-12-07T01:41:39;13.43;;;11.20;;
8139;SDS011;4111;50.972;7.072;2023-12-07T01:44:06;13.10;;;11.03;;
8139;SDS011;4111;50.972;7.072;2023-12-07T01:46:32;14.47;;;11.67;;
8139;SDS011;4111;50.972;7.072;2023-12-07T01:49:00;16.03;;;11.23;;
8139;SDS011;4111;50.972;7.072;2023-12-07T01:51:27;16.97;;;11.50;;
8139;SDS011;4111;50.972;7.072;2023-12-07T01:53:54;13.23;;;11.07;;
8139;SDS011;4111;50.972;7.072;2023-12-07T01:56:21;19.90;;;12.23;;
8139;SDS011;4111;50.972;7.072;2023-12-07T01:58:50;16.80;;;12.17;;
8139;SDS011;4111;50.972;7.072;2023-12-07T02:01:17;16.17;;;12.30;;
8139;SDS011;4111;50.972;7.072;2023-12-07T02:03:44;20.97;;;13.33;;
8139;SDS011;4111;50.972;7.072;2023-12-07T02:06:11;15.00;;;12.67;;
8139;SDS011;4111;50.972;7.072;2023-12-07T02:08:37;16.50;;;13.27;;
8139;SDS011;4111;50.972;7.072;2023-12-07T02:11:08;17.53;;;14.00;;
8139;SDS011;4111;50.972;7.072;2023-12-07T02:13:36;18.27;;;13.73;;
8139;SDS011;4111;50.972;7.072;2023-12-07T02:16:05;18.43;;;13.90;;
8139;SDS011;4111;50.972;7.072;2023-12-07T02:18:38;18.73;;;13.53;;
8139;SDS011;4111;50.972;7.072;2023-12-07T02:21:16;19.50;;;14.67;;
8139;SDS011;4111;50.972;7.072;2023-12-07T02:23:47;16.73;;;13.77;;
8139;SDS011;4111;50.972;7.072;2023-12-07T02:26:34;22.83;;;15.20;;
8139;SDS011;4111;50.972;7.072;2023-12-07T02:29:01;18.40;;;14.47;;
8139;SDS011;4111;50.972;7.072;2023-12-07T02:31:27;18.90;;;15.10;;
8139;SDS011;4111;50.972;7.072;2023-12-07T02:33:54;20.27;;;14.83;;
8139;SDS011;4111;50.972;7.072;2023-12-07T02:36:22;19.93;;;14.17;;
8139;SDS011;4111;50.972;7.072;2023-12-07T02:38:53;19.80;;;14.93;;
8139;SDS011;4111;50.972;7.072;2023-12-07T02:41:23;21.93;;;14.73;;
8139;SDS011;4111;50.972;7.072;2023-12-07T02:43:51;19.17;;;13.93;;
8139;SDS011;4111;50.972;7.072;2023-12-07T02:46:18;19.17;;;14.83;;
8139;SDS011;4111;50.972;7.072;2023-12-07T02:48:44;17.37;;;14.73;;
8139;SDS011;4111;50.972;7.072;2023-12-07T02:51:11;18.27;;;14.57;;
8139;SDS011;4111;50.972;7.072;2023-12-07T02:53:37;16.90;;;13.67;;
8139;SDS011;4111;50.972;7.072;2023-12-07T02:56:04;17.73;;;14.30;;
8139;SDS011;4111;50.972;7.072;2023-12-07T02:58:31;18.00;;;14.90;;
8139;SDS011;4111;50.972;7.072;2023-12-07T03:00:57;19.33;;;15.87;;
8139;SDS011;4111;50.972;7.072;2023-12-07T03:03:25;22.07;;;15.13;;
8139;SDS011;4111;50.972;7.072;2023-12-07T03:05:52;23.57;;;15.90;;
8139;SDS011;4111;50.972;7.072;2023-12-07T03:08:18;21.90;;;16.60;;
8139;SDS011;4111;50.972;7.072;2023-12-07T03:10:45;18.80;;;15.07;;
8139;SDS011;4111;50.972;7.072;2023-12-07T03:13:11;24.57;;;16.17;;
8139;SDS011;4111;50.972;7.072;2023-12-07T03:15:38;24.57;;;16.70;;
8139;SDS011;4111;50.972;7.072;2023-12-07T03:18:04;24.40;;;15.63;;
8139;SDS011;4111;50.972;7.072;2023-12-07T03:20:31;23.57;;;17.60;;
8139;SDS011;4111;50.972;7.072;2023-12-07T03:22:58;23.37;;;17.27;;
8139;SDS011;4111;50.972;7.072;2023-12-07T03:25:24;25.27;;;16.97;;
8139;SDS011;4111;50.972;7.072;2023-12-07T03:27:51;24.13;;;17.57;;
8139;SDS011;4111;50.972;7.072;2023-12-07T03:30:18;24.20;;;16.80;;
8139;SDS011;4111;50.972;7.072;2023-12-07T03:32:44;26.70;;;17.50;;
8139;SDS011;4111;50.972;7.072;2023-12-07T03:35:11;19.70;;;16.57;;
8139;SDS011;4111;50.972;7.072;2023-12-07T03:37:37;20.80;;;16.10;;
8139;SDS011;4111;50.972;7.072;2023-12-07T03:40:04;24.30;;;17.63;;
8139;SDS011;4111;50.972;7.072;2023-12-07T03:42:31;28.83;;;16.43;;
8139;SDS011;4111;50.972;7.072;2023-12-07T03:45:18;25.07;;;17.77;;
8139;SDS011;4111;50.972;7.072;2023-12-07T03:47:44;21.73;;;17.97;;
8139;SDS011;4111;50.972;7.072;2023-12-07T03:50:11;24.67;;;17.93;;
8139;SDS011;4111;50.972;7.072;2023-12-07T03:52:37;22.97;;;17.53;;
8139;SDS011;4111;50.972;7.072;2023-12-07T03:55:04;23.63;;;17.90;;
8139;SDS011;4111;50.972;7.072;2023-12-07T03:57:31;26.37;;;18.50;;
8139;SDS011;4111;50.972;7.072;2023-12-07T03:59:58;25.87;;;18.47;;
8139;SDS011;4111;50.972;7.072;2023-12-07T04:02:24;24.37;;;17.77;;
8139;SDS011;4111;50.972;7.072;2023-12-07T04:04:51;25.87;;;17.57;;
8139;SDS011;4111;50.972;7.072;2023-12-07T04:07:17;22.80;;;17.20;;
8139;SDS011;4111;50.972;7.072;2023-12-07T04:09:44;23.60;;;17.53;;
8139;SDS011;4111;50.972;7.072;2023-12-07T04:12:11;23.97;;;17.57;;
8139;SDS011;4111;50.972;7.072;2023-12-07T04:14:37;24.33;;;17.27;;
8139;SDS011;4111;50.972;7.072;2023-12-07T04:17:04;26.70;;;17.33;;
8139;SDS011;4111;50.972;7.072;2023-12-07T04:19:30;22.23;;;17.60;;
8139;SDS011;4111;50.972;7.072;2023-12-07T04:21:57;22.37;;;17.93;;
8139;SDS011;4111;50.972;7.072;2023-12-07T04:24:23;25.23;;;18.40;;
8139;SDS011;4111;50.972;7.072;2023-12-07T04:26:49;25.67;;;18.17;;
8139;SDS011;4111;50.972;7.072;2023-12-07T04:29:16;24.27;;;17.73;;
8139;SDS011;4111;50.972;7.072;2023-12-07T04:31:42;25.47;;;18.00;;
8139;SDS011;4111;50.972;7.072;2023-12-07T04:34:09;25.27;;;17.27;;
8139;SDS011;4111;50.972;7.072;2023-12-07T04:36:36;23.13;;;17.30;;
8139;SDS011;4111;50.972;7.072;2023-12-07T04:39:02;22.20;;;16.70;;
8139;SDS011;4111;50.972;7.072;2023-12-07T04:41:29;26.57;;;17.37;;
8139;SDS011;4111;50.972;7.072;2023-12-07T04:43:55;21.23;;;17.10;;
8139;SDS011;4111;50.972;7.072;2023-12-07T04:46:22;22.13;;;16.63;;
8139;SDS011;4111;50.972;7.072;2023-12-07T04:48:48;21.17;;;16.90;;
8139;SDS011;4111;50.972;7.072;2023-12-07T04:51:15;21.80;;;15.20;;
8139;SDS011;4111;50.972;7.072;2023-12-07T04:53:41;19.40;;;16.30;;
8139;SDS011;4111;50.972;7.072;2023-12-07T04:56:08;21.40;;;16.60;;
8139;SDS011;4111;50.972;7.072;2023-12-07T04:58:35;28.63;;;16.47;;
8139;SDS011;4111;50.972;7.072;2023-12-07T05:01:01;24.03;;;16.63;;
8139;SDS011;4111;50.972;7.072;2023-12-07T05:03:29;22.20;;;15.63;;
8139;SDS011;4111;50.972;7.072;2023-12-07T05:05:55;19.77;;;15.30;;
8139;SDS011;4111;50.972;7.072;2023-12-07T05:08:22;21.17;;;17.83;;
8139;SDS011;4111;50.972;7.072;2023-12-07T05:10:48;22.83;;;16.43;;
8139;SDS011;4111;50.972;7.072;2023-12-07T05:13:15;20.80;;;15.77;;
8139;SDS011;4111;50.972;7.072;2023-12-07T05:15:41;23.53;;;15.73;;
8139;SDS011;4111;50.972;7.072;2023-12-07T05:18:08;20.63;;;15.80;;
8139;SDS011;4111;50.972;7.072;2023-12-07T05:20:35;20.93;;;15.83;;
8139;SDS011;4111;50.972;7.072;2023-12-07T05:23:05;20.27;;;15.53;;
8139;SDS011;4111;50.972;7.072;2023-12-07T05:25:32;20.27;;;14.87;;
8139;SDS011;4111;50.972;7.072;2023-12-07T05:27:58;18.90;;;14.60;;
8139;SDS011;4111;50.972;7.072;2023-12-07T05:30:25;20.97;;;12.73;;
8139;SDS011;4111;50.972;7.072;2023-12-07T05:32:51;17.13;;;13.10;;
8139;SDS011;4111;50.972;7.072;2023-12-07T05:35:18;14.67;;;12.27;;
8139;SDS011;4111;50.972;7.072;2023-12-07T05:37:44;17.33;;;12.57;;
8139;SDS011;4111;50.972;7.072;2023-12-07T05:40:11;19.27;;;12.30;;
8139;SDS011;4111;50.972;7.072;2023-12-07T05:42:38;15.97;;;11.53;;
8139;SDS011;4111;50.972;7.072;2023-12-07T05:45:05;18.03;;;12.53;;
8139;SDS011;4111;50.972;7.072;2023-12-07T05:47:32;16.40;;;12.13;;
8139;SDS011;4111;50.972;7.072;2023-12-07T05:49:59;16.67;;;12.23;;
8139;SDS011;4111;50.972;7.072;2023-12-07T05:52:26;16.50;;;11.40;;
8139;SDS011;4111;50.972;7.072;2023-12-07T05:54:53;14.27;;;11.23;;
8139;SDS011;4111;50.972;7.072;2023-12-07T05:57:19;14.77;;;12.00;;
8139;SDS011;4111;50.972;7.072;2023-12-07T05:59:46;14.73;;;11.63;;
8139;SDS011;4111;50.972;7.072;2023-12-07T06:02:12;16.07;;;12.20;;
8139;SDS011;4111;50.972;7.072;2023-12-07T06:04:39;19.50;;;11.83;;
8139;SDS011;4111;50.972;7.072;2023-12-07T06:07:06;14.57;;;11.77;;
8139;SDS011;4111;50.972;7.072;2023-12-07T06:09:32;16.73;;;11.43;;
8139;SDS011;4111;50.972;7.072;2023-12-07T06:11:59;16.33;;;12.33;;
8139;SDS011;4111;50.972;7.072;2023-12-07T06:14:26;15.80;;;11.30;;
8139;SDS011;4111;50.972;7.072;2023-12-07T06:16:52;13.63;;;11.53;;
8139;SDS011;4111;50.972;7.072;2023-12-07T06:19:18;14.33;;;11.27;;
8139;SDS011;4111;50.972;7.072;2023-12-07T06:21:45;14.03;;;11.80;;
8139;SDS011;4111;50.972;7.072;2023-12-07T06:24:11;19.03;;;12.33;;
8139;SDS011;4111;50.972;7.072;2023-12-07T06:26:40;19.37;;;14.07;;
8139;SDS011;4111;50.972;7.072;2023-12-07T06:29:06;18.20;;;13.47;;
8139;SDS011;4111;50.972;7.072;2023-12-07T06:31:33;16.40;;;12.27;;
8139;SDS011;4111;50.972;7.072;2023-12-07T06:34:00;13.10;;;11.60;;
8139;SDS011;4111;50.972;7.072;2023-12-07T06:36:27;17.33;;;12.47;;
8139;SDS011;4111;50.972;7.072;2023-12-07T06:38:53;14.40;;;11.60;;
8139;SDS011;4111;50.972;7.072;2023-12-07T06:41:21;15.77;;;11.43;;
8139;SDS011;4111;50.972;7.072;2023-12-07T06:43:47;13.80;;;10.83;;
8139;SDS011;4111;50.972;7.072;2023-12-07T06:46:14;13.70;;;11.30;;
8139;SDS011;4111;50.972;7.072;2023-12-07T06:48:42;14.83;;;11.20;;
8139;SDS011;4111;50.972;7.072;2023-12-07T06:51:08;13.27;;;10.77;;
8139;SDS011;4111;50.972;7.072;2023-12-07T06:53:35;13.07;;;10.83;;
8139;SDS011;4111;50.972;7.072;2023-12-07T06:56:01;15.00;;;10.90;;
8139;SDS011;4111;50.972;7.072;2023-12-07T06:58:28;13.10;;;10.30;;
8139;SDS011;4111;50.972;7.072;2023-12-07T07:00:55;13.50;;;11.20;;
8139;SDS011;4111;50.972;7.072;2023-12-07T07:03:21;14.43;;;10.10;;
8139;SDS011;4111;50.972;7.072;2023-12-07T07:05:48;14.40;;;10.27;;
8139;SDS011;4111;50.972;7.072;2023-12-07T07:08:14;14.07;;;10.43;;
8139;SDS011;4111;50.972;7.072;2023-12-07T07:10:41;12.03;;;10.43;;
8139;SDS011;4111;50.972;7.072;2023-12-07T07:13:07;13.70;;;10.53;;
8139;SDS011;4111;50.972;7.072;2023-12-07T07:15:34;13.87;;;11.33;;
8139;SDS011;4111;50.972;7.072;2023-12-07T07:18:00;14.30;;;11.23;;
8139;SDS011;4111;50.972;7.072;2023-12-07T07:20:27;13.30;;;9.87;;
8139;SDS011;4111;50.972;7.072;2023-12-07T07:22:54;16.33;;;10.47;;
8139;SDS011;4111;50.972;7.072;2023-12-07T07:25:20;19.07;;;10.43;;
8139;SDS011;4111;50.972;7.072;2023-12-07T07:27:46;14.10;;;10.73;;
8139;SDS011;4111;50.972;7.072;2023-12-07T07:30:13;13.00;;;10.50;;
8139;SDS011;4111;50.972;7.072;2023-12-07T07:32:40;15.87;;;10.70;;
8139;SDS011;4111;50.972;7.072;2023-12-07T07:35:07;13.57;;;10.97;;
8139;SDS011;4111;50.972;7.072;2023-12-07T07:37:34;17.03;;;11.40;;
8139;SDS011;4111;50.972;7.072;2023-12-07T07:40:00;13.93;;;12.43;;
8139;SDS011;4111;50.972;7.072;2023-12-07T07:42:33;15.80;;;12.10;;
8139;SDS011;4111;50.972;7.072;2023-12-07T07:44:59;16.10;;;12.10;;
8139;SDS011;4111;50.972;7.072;2023-12-07T07:47:26;17.50;;;14.80;;
8139;SDS011;4111;50.972;7.072;2023-12-07T07:49:53;21.23;;;15.33;;
8139;SDS011;4111;50.972;7.072;2023-12-07T07:52:19;17.60;;;15.63;;
8139;SDS011;4111;50.972;7.072;2023-12-07T07:54:46;18.70;;;14.60;;
8139;SDS011;4111;50.972;7.072;2023-12-07T07:57:12;18.63;;;13.40;;
8139;SDS011;4111;50.972;7.072;2023-12-07T07:59:39;17.17;;;12.87;;
8139;SDS011;4111;50.972;7.072;2023-12-07T08:02:05;17.60;;;13.87;;
8139;SDS011;4111;50.972;7.072;2023-12-07T08:04:32;17.63;;;13.97;;
8139;SDS011;4111;50.972;7.072;2023-12-07T08:06:58;18.43;;;13.80;;
8139;SDS011;4111;50.972;7.072;2023-12-07T08:09:25;19.17;;;13.37;;
8139;SDS011;4111;50.972;7.072;2023-12-07T08:11:52;15.53;;;12.97;;
8139;SDS011;4111;50.972;7.072;2023-12-07T08:14:18;18.03;;;13.60;;
8139;SDS011;4111;50.972;7.072;2023-12-07T08:16:45;16.30;;;13.03;;
8139;SDS011;4111;50.972;7.072;2023-12-07T08:19:13;18.80;;;14.43;;
8139;SDS011;4111;50.972;7.072;2023-12-07T08:21:40;15.70;;;13.93;;
8139;SDS011;4111;50.972;7.072;2023-12-07T08:24:06;20.93;;;15.10;;
8139;SDS011;4111;50.972;7.072;2023-12-07T08:26:33;17.60;;;15.47;;
8139;SDS011;4111;50.972;7.072;2023-12-07T08:28:59;15.57;;;13.10;;
8139;SDS011;4111;50.972;7.072;2023-12-07T08:31:25;14.40;;;12.87;;
8139;SDS011;4111;50.972;7.072;2023-12-07T08:33:52;16.20;;;13.10;;
8139;SDS011;4111;50.972;7.072;2023-12-07T08:36:19;14.67;;;12.80;;
8139;SDS011;4111;50.972;7.072;2023-12-07T08:38:45;15.83;;;12.93;;
8139;SDS011;4111;50.972;7.072;2023-12-07T08:41:12;16.90;;;13.20;;
8139;SDS011;4111;50.972;7.072;2023-12-07T08:43:40;17.37;;;13.13;;
8139;SDS011;4111;50.972;7.072;2023-12-07T08:46:06;14.37;;;12.50;;
8139;SDS011;4111;50.972;7.072;2023-12-07T08:48:33;17.80;;;12.87;;
8139;SDS011;4111;50.972;7.072;2023-12-07T08:51:03;15.83;;;12.97;;
8139;SDS011;4111;50.972;7.072;2023-12-07T08:53:29;18.10;;;13.87;;
8139;SDS011;4111;50.972;7.072;2023-12-07T08:55:56;16.37;;;13.17;;
8139;SDS011;4111;50.972;7.072;2023-12-07T08:58:23;17.57;;;13.50;;
8139;SDS011;4111;50.972;7.072;2023-12-07T09:00:50;14.83;;;12.80;;
8139;SDS011;4111;50.972;7.072;2023-12-07T09:03:16;16.73;;;13.33;;
8139;SDS011;4111;50.972;7.072;2023-12-07T09:05:43;14.50;;;13.00;;
8139;SDS011;4111;50.972;7.072;2023-12-07T09:08:10;19.63;;;13.50;;
8139;SDS011;4111;50.972;7.072;2023-12-07T09:10:36;14.37;;;12.57;;
8139;SDS011;4111;50.972;7.072;2023-12-07T09:13:03;15.17;;;12.83;;
8139;SDS011;4111;50.972;7.072;2023-12-07T09:15:29;16.37;;;13.83;;
8139;SDS011;4111;50.972;7.072;2023-12-07T09:17:57;15.27;;;13.63;;
8139;SDS011;4111;50.972;7.072;2023-12-07T09:20:23;17.67;;;14.47;;
8139;SDS011;4111;50.972;7.072;2023-12-07T09:22:50;15.67;;;13.27;;
8139;SDS011;4111;50.972;7.072;2023-12-07T09:25:17;16.40;;;13.37;;
8139;SDS011;4111;50.972;7.072;2023-12-07T09:27:44;15.07;;;13.40;;
8139;SDS011;4111;50.972;7.072;2023-12-07T09:30:10;17.00;;;13.97;;
8139;SDS011;4111;50.972;7.072;2023-12-07T09:32:41;15.90;;;14.00;;
8139;SDS011;4111;50.972;7.072;2023-12-07T09:35:10;16.60;;;13.63;;
8139;SDS011;4111;50.972;7.072;2023-12-07T09:37:48;15.67;;;13.17;;
8139;SDS011;4111;50.972;7.072;2023-12-07T09:40:16;19.77;;;15.07;;
8139;SDS011;4111;50.972;7.072;2023-12-07T09:42:47;16.07;;;13.67;;
8139;SDS011;4111;50.972;7.072;2023-12-07T09:45:14;15.57;;;13.40;;
8139;SDS011;4111;50.972;7.072;2023-12-07T09:47:43;17.20;;;13.70;;
8139;SDS011;4111;50.972;7.072;2023-12-07T09:50:13;18.67;;;14.10;;
8139;SDS011;4111;50.972;7.072;2023-12-07T09:52:42;15.30;;;12.97;;
8139;SDS011;4111;50.972;7.072;2023-12-07T09:55:19;15.63;;;13.07;;
8139;SDS011;4111;50.972;7.072;2023-12-07T09:57:46;17.17;;;13.37;;
8139;SDS011;4111;50.972;7.072;2023-12-07T10:00:12;17.50;;;14.07;;
8139;SDS011;4111;50.972;7.072;2023-12-07T10:02:42;18.60;;;13.03;;
8139;SDS011;4111;50.972;7.072;2023-12-07T10:05:10;18.27;;;12.77;;
8139;SDS011;4111;50.972;7.072;2023-12-07T10:07:40;15.40;;;12.50;;
8139;SDS011;4111;50.972;7.072;2023-12-07T10:10:07;16.10;;;12.43;;
8139;SDS011;4111;50.972;7.072;2023-12-07T10:12:40;15.33;;;12.80;;
8139;SDS011;4111;50.972;7.072;2023-12-07T10:15:13;17.17;;;13.50;;
8139;SDS011;4111;50.972;7.072;2023-12-07T10:17:48;13.57;;;12.13;;
8139;SDS011;4111;50.972;7.072;2023-12-07T10:20:24;14.37;;;11.73;;
8139;SDS011;4111;50.972;7.072;2023-12-07T10:23:02;16.83;;;12.43;;
8139;SDS011;4111;50.972;7.072;2023-12-07T10:25:35;15.03;;;12.80;;
8139;SDS011;4111;50.972;7.072;2023-12-07T10:28:03;15.57;;;12.47;;
8139;SDS011;4111;50.972;7.072;2023-12-07T10:30:33;13.97;;;11.23;;
8139;SDS011;4111;50.972;7.072;2023-12-07T10:33:04;16.13;;;11.53;;
8139;SDS011;4111;50.972;7.072;2023-12-07T10:35:33;14.63;;;11.90;;
8139;SDS011;4111;50.972;7.072;2023-12-07T10:38:06;12.37;;;11.00;;
8139;SDS011;4111;50.972;7.072;2023-12-07T10:40:33;12.13;;;10.80;;
8139;SDS011;4111;50.972;7.072;2023-12-07T10:42:59;11.77;;;10.57;;
8139;SDS011;4111;50.972;7.072;2023-12-07T10:45:31;11.30;;;9.97;;
8139;SDS011;4111;50.972;7.072;2023-12-07T10:48:00;12.27;;;10.97;;
8139;SDS011;4111;50.972;7.072;2023-12-07T10:50:31;14.67;;;10.67;;
8139;SDS011;4111;50.972;7.072;2023-12-07T10:53:10;11.57;;;10.33;;
8139;SDS011;4111;50.972;7.072;2023-12-07T10:56:00;11.83;;;10.33;;
8139;SDS011;4111;50.972;7.072;2023-12-07T10:58:27;12.50;;;10.33;;
8139;SDS011;4111;50.972;7.072;2023-12-07T11:00:54;16.33;;;11.27;;
8139;SDS011;4111;50.972;7.072;2023-12-07T11:03:22;12.73;;;10.63;;
8139;SDS011;4111;50.972;7.072;2023-12-07T11:05:49;10.93;;;9.87;;
8139;SDS011;4111;50.972;7.072;2023-12-07T11:08:19;12.67;;;10.40;;
8139;SDS011;4111;50.972;7.072;2023-12-07T11:10:52;13.07;;;10.30;;
8139;SDS011;4111;50.972;7.072;2023-12-07T11:13:29;11.60;;;10.20;;
8139;SDS011;4111;50.972;7.072;2023-12-07T11:15:57;10.23;;;9.17;;
8139;SDS011;4111;50.972;7.072;2023-12-07T11:18:27;11.43;;;10.33;;
8139;SDS011;4111;50.972;7.072;2023-12-07T11:20:55;10.90;;;9.67;;
8139;SDS011;4111;50.972;7.072;2023-12-07T11:23:22;11.33;;;10.13;;
8139;SDS011;4111;50.972;7.072;2023-12-07T11:25:50;13.50;;;11.10;;
8139;SDS011;4111;50.972;7.072;2023-12-07T11:28:18;11.80;;;10.60;;
8139;SDS011;4111;50.972;7.072;2023-12-07T11:31:00;11.03;;;9.77;;
8139;SDS011;4111;50.972;7.072;2023-12-07T11:33:30;12.73;;;10.43;;
8139;SDS011;4111;50.972;7.072;2023-12-07T11:38:30;12.07;;;9.60;;
8139;SDS011;4111;50.972;7.072;2023-12-07T11:40:57;10.23;;;9.10;;
8139;SDS011;4111;50.972;7.072;2023-12-07T11:43:30;10.17;;;9.07;;
8139;SDS011;4111;50.972;7.072;2023-12-07T11:46:04;10.03;;;8.90;;
8139;SDS011;4111;50.972;7.072;2023-12-07T11:48:31;10.40;;;9.33;;
8139;SDS011;4111;50.972;7.072;2023-12-07T11:53:26;10.10;;;8.43;;
8139;SDS011;4111;50.972;7.072;2023-12-07T11:56:01;9.67;;;8.77;;
8139;SDS011;4111;50.972;7.072;2023-12-07T11:58:28;11.10;;;8.80;;
8139;SDS011;4111;50.972;7.072;2023-12-07T12:00:58;11.83;;;9.40;;
8139;SDS011;4111;50.972;7.072;2023-12-07T12:03:26;19.40;;;12.13;;
8139;SDS011;4111;50.972;7.072;2023-12-07T12:05:53;13.07;;;9.93;;
8139;SDS011;4111;50.972;7.072;2023-12-07T12:08:21;10.57;;;9.37;;
8139;SDS011;4111;50.972;7.072;2023-12-07T12:10:49;12.63;;;9.53;;
8139;SDS011;4111;50.972;7.072;2023-12-07T12:13:18;8.90;;;7.80;;
8139;SDS011;4111;50.972;7.072;2023-12-07T12:15:45;15.50;;;10.83;;
8139;SDS011;4111;50.972;7.072;2023-12-07T12:18:16;10.67;;;8.53;;
8139;SDS011;4111;50.972;7.072;2023-12-07T12:20:44;12.70;;;9.53;;
8139;SDS011;4111;50.972;7.072;2023-12-07T12:23:11;12.33;;;8.93;;
8139;SDS011;4111;50.972;7.072;2023-12-07T12:25:37;11.27;;;8.63;;
8139;SDS011;4111;50.972;7.072;2023-12-07T12:28:06;11.60;;;8.20;;
8139;SDS011;4111;50.972;7.072;2023-12-07T12:30:33;10.53;;;8.63;;
8139;SDS011;4111;50.972;7.072;2023-12-07T12:33:00;10.30;;;8.17;;
8139;SDS011;4111;50.972;7.072;2023-12-07T12:35:28;10.07;;;7.63;;
8139;SDS011;4111;50.972;7.072;2023-12-07T12:37:55;8.47;;;7.23;;
8139;SDS011;4111;50.972;7.072;2023-12-07T12:40:22;12.17;;;7.73;;
8139;SDS011;4111;50.972;7.072;2023-12-07T12:42:50;10.77;;;7.93;;
8139;SDS011;4111;50.972;7.072;2023-12-07T12:45:22;8.93;;;7.30;;
8139;SDS011;4111;50.972;7.072;2023-12-07T12:47:49;13.47;;;9.63;;
8139;SDS011;4111;50.972;7.072;2023-12-07T12:53:06;15.03;;;9.50;;
8139;SDS011;4111;50.972;7.072;2023-12-07T12:55:37;11.33;;;9.10;;
8139;SDS011;4111;50.972;7.072;2023-12-07T12:58:06;8.60;;;6.97;;
8139;SDS011;4111;50.972;7.072;2023-12-07T13:00:34;10.17;;;8.03;;
8139;SDS011;4111;50.972;7.072;2023-12-07T13:03:04;12.13;;;8.63;;
8139;SDS011;4111;50.972;7.072;2023-12-07T13:05:31;8.43;;;7.50;;
8139;SDS011;4111;50.972;7.072;2023-12-07T13:08:01;9.50;;;7.13;;
8139;SDS011;4111;50.972;7.072;2023-12-07T13:10:40;9.67;;;7.83;;
8139;SDS011;4111;50.972;7.072;2023-12-07T13:13:07;10.40;;;8.63;;
8139;SDS011;4111;50.972;7.072;2023-12-07T13:15:33;7.77;;;6.37;;
8139;SDS011;4111;50.972;7.072;2023-12-07T13:18:00;8.47;;;6.60;;
8139;SDS011;4111;50.972;7.072;2023-12-07T13:20:31;7.70;;;6.73;;
8139;SDS011;4111;50.972;7.072;2023-12-07T13:23:15;9.77;;;7.33;;
8139;SDS011;4111;50.972;7.072;2023-12-07T13:25:41;7.10;;;6.10;;
8139;SDS011;4111;50.972;7.072;2023-12-07T13:28:08;10.30;;;7.07;;
8139;SDS011;4111;50.972;7.072;2023-12-07T13:30:37;8.33;;;6.67;;
8139;SDS011;4111;50.972;7.072;2023-12-07T13:33:05;7.73;;;6.17;;
8139;SDS011;4111;50.972;7.072;2023-12-07T13:35:50;7.50;;;6.60;;
8139;SDS011;4111;50.972;7.072;2023-12-07T13:38:18;7.93;;;5.53;;
8139;SDS011;4111;50.972;7.072;2023-12-07T13:40:46;8.90;;;5.67;;
8139;SDS011;4111;50.972;7.072;2023-12-07T13:43:13;7.57;;;6.20;;
8139;SDS011;4111;50.972;7.072;2023-12-07T13:45:43;7.77;;;6.20;;
8139;SDS011;4111;50.972;7.072;2023-12-07T13:48:10;8.50;;;5.90;;
8139;SDS011;4111;50.972;7.072;2023-12-07T13:50:36;7.00;;;6.17;;
8139;SDS011;4111;50.972;7.072;2023-12-07T13:53:02;10.23;;;7.30;;
8139;SDS011;4111;50.972;7.072;2023-12-07T13:55:29;7.67;;;6.97;;
8139;SDS011;4111;50.972;7.072;2023-12-07T13:57:55;13.97;;;10.20;;
8139;SDS011;4111;50.972;7.072;2023-12-07T14:00:23;9.97;;;7.60;;
8139;SDS011;4111;50.972;7.072;2023-12-07T14:02:50;7.40;;;6.60;;
8139;SDS011;4111;50.972;7.072;2023-12-07T14:05:16;7.37;;;6.73;;
8139;SDS011;4111;50.972;7.072;2023-12-07T14:07:48;7.87;;;7.07;;
8139;SDS011;4111;50.972;7.072;2023-12-07T14:10:14;8.20;;;7.20;;
8139;SDS011;4111;50.972;7.072;2023-12-07T14:12:41;9.17;;;6.90;;
8139;SDS011;4111;50.972;7.072;2023-12-07T14:15:08;8.80;;;7.17;;
8139;SDS011;4111;50.972;7.072;2023-12-07T14:17:36;7.50;;;6.63;;
8139;SDS011;4111;50.972;7.072;2023-12-07T14:20:15;8.07;;;6.80;;
8139;SDS011;4111;50.972;7.072;2023-12-07T14:23:02;9.40;;;6.70;;
8139;SDS011;4111;50.972;7.072;2023-12-07T14:25:31;6.83;;;6.20;;
8139;SDS011;4111;50.972;7.072;2023-12-07T14:27:58;6.97;;;6.30;;
8139;SDS011;4111;50.972;7.072;2023-12-07T14:30:24;11.20;;;6.67;;
8139;SDS011;4111;50.972;7.072;2023-12-07T14:32:51;7.27;;;6.30;;
8139;SDS011;4111;50.972;7.072;2023-12-07T14:35:20;6.83;;;6.13;;
8139;SDS011;4111;50.972;7.072;2023-12-07T14:37:47;7.00;;;6.30;;
8139;SDS011;4111;50.972;7.072;2023-12-07T14:40:16;7.27;;;6.23;;
8139;SDS011;4111;50.972;7.072;2023-12-07T14:42:43;8.50;;;6.13;;
8139;SDS011;4111;50.972;7.072;2023-12-07T14:45:11;6.80;;;5.87;;
8139;SDS011;4111;50.972;7.072;2023-12-07T14:47:37;7.27;;;5.70;;
8139;SDS011;4111;50.972;7.072;2023-12-07T14:50:05;6.60;;;5.83;;
8139;SDS011;4111;50.972;7.072;2023-12-07T14:52:32;5.93;;;5.33;;
8139;SDS011;4111;50.972;7.072;2023-12-07T14:54:58;7.37;;;5.50;;
8139;SDS011;4111;50.972;7.072;2023-12-07T14:57:25;6.03;;;5.43;;
8139;SDS011;4111;50.972;7.072;2023-12-07T14:59:51;9.23;;;5.70;;
8139;SDS011;4111;50.972;7.072;2023-12-07T15:02:20;8.63;;;6.23;;
8139;SDS011;4111;50.972;7.072;2023-12-07T15:04:47;6.10;;;5.30;;